Charlotte, North Carolina
Current Conditions -  °F | °C
As of 7:52 AM on Thursday 23 Oct 2014 (Local Time) from KCLT Reporting Station
Clear Clear  
Wind Chill: 37°   Ceiling: Unl
Heat Index: 41°   Visibility: 10mi
Dew Point: 37°   Wind: 6mph
Humidity: 86%   Direction: 330°NNW
Pressure: 30.09"   Gusts: NA
Location:  35.22°N, 80.84°W
Report Text: KCLT 231152Z 33005KT 10SM CLR 05/03 A3009 RMK AO2 SLP188 T00500028 10078 20044 51006 $
Loading
Personal Weather Stations






























Interactive Weather Map
Tropical Storm Tracking
New forecast layout! Learn more

10-Day Weather Forecast

Advertisements
Track Severe Weather on mobile